Time;durP1;ratioP1;P1;durP2;ratioP2;P2;SDS_P1;SDS_P2;PMS_P1;PMS_P2;Temp;Humidity;BMP_temperature;BMP_pressure;BME280_temperature;BME280_humidity;BME280_pressure;Samples;Min_cycle;Max_cycle;Signal;HPM_P1;HPM_P2
2023/04/06 00:01:39;;;;;;;6.97;5.18;;;;;;;;;;5075194;28;20033;-63
2023/04/06 00:04:05;;;;;;;9.85;4.90;;;;;;;;;;5075363;28;20028;-63
2023/04/06 00:06:31;;;;;;;9.95;5.28;;;;;;;;;;5075000;28;20396;-63
2023/04/06 00:08:57;;;;;;;6.90;4.75;;;;;;;;;;5075302;28;20020;-64
2023/04/06 00:11:23;;;;;;;7.72;5.18;;;;;;;;;;5075116;28;20365;-65
2023/04/06 00:13:48;;;;;;;8.65;5.40;;;;;;;;;;5075189;28;20585;-65
2023/04/06 00:16:14;;;;;;;10.05;5.68;;;;;;;;;;5074726;28;20032;-65
2023/04/06 00:18:40;;;;;;;7.05;4.60;;;;;;;;;;5075160;28;20063;-63
2023/04/06 00:21:06;;;;;;;7.85;5.00;;;;;;;;;;5074929;28;20369;-63
2023/04/06 00:23:31;;;;;;;8.20;4.82;;;;;;;;;;5090120;28;20035;-62
2023/04/06 00:25:57;;;;;;;7.28;5.00;;;;;;;;;;5074466;28;20468;-62
2023/04/06 00:28:25;;;;;;;9.95;5.22;;;;;;;;;;5074459;28;20028;-63
2023/04/06 00:30:55;;;;;;;8.02;5.30;;;;;;;;;;5074535;28;20025;-63
2023/04/06 00:33:21;;;;;;;6.40;4.45;;;;;;;;;;5074416;28;20491;-63
2023/04/06 00:35:46;;;;;;;9.45;5.53;;;;;;;;;;5074118;28;20029;-63
2023/04/06 00:38:13;;;;;;;8.18;4.82;;;;;;;;;;5074606;28;20104;-63
2023/04/06 00:40:39;;;;;;;7.38;5.22;;;;;;;;;;5074708;28;20107;-63
2023/04/06 00:43:10;;;;;;;8.82;5.30;;;;;;;;;;5074252;28;20547;-62
2023/04/06 00:45:36;;;;;;;7.50;5.05;;;;;;;;;;5073966;28;20032;-63
2023/04/06 00:48:01;;;;;;;10.80;5.35;;;;;;;;;;5074090;28;20047;-63
2023/04/06 00:50:27;;;;;;;7.15;4.45;;;;;;;;;;5074118;28;20029;-63
2023/04/06 00:52:54;;;;;;;8.88;4.93;;;;;;;;;;5081616;28;20572;-63
2023/04/06 00:55:20;;;;;;;7.60;5.03;;;;;;;;;;5094689;28;20024;-63
2023/04/06 00:57:45;;;;;;;7.05;5.15;;;;;;;;;;5076136;28;20417;-63
2023/04/06 01:00:12;;;;;;;8.27;5.28;;;;;;;;;;5094289;28;20025;-63
2023/04/06 01:02:38;;;;;;;9.15;4.93;;;;;;;;;;5092968;28;20106;-64
2023/04/06 01:05:04;;;;;;;8.13;5.18;;;;;;;;;;5094148;28;20047;-62
2023/04/06 01:07:30;;;;;;;8.20;4.90;;;;;;;;;;5093735;28;20024;-63
2023/04/06 01:09:55;;;;;;;7.45;5.20;;;;;;;;;;5094014;28;20043;-62
2023/04/06 01:12:21;;;;;;;8.30;4.97;;;;;;;;;;5093916;28;20047;-63
2023/04/06 01:14:46;;;;;;;7.80;5.03;;;;;;;;;;5094016;28;20043;-63
2023/04/06 01:17:12;;;;;;;7.50;5.07;;;;;;;;;;5083597;28;20044;-63
2023/04/06 01:19:40;;;;;;;7.25;5.38;;;;;;;;;;5072119;28;20028;-62
2023/04/06 01:22:05;;;;;;;6.85;5.00;;;;;;;;;;5073575;28;20029;-63
2023/04/06 01:24:31;;;;;;;7.60;5.20;;;;;;;;;;5073485;28;20078;-63
2023/04/06 01:26:57;;;;;;;8.07;5.03;;;;;;;;;;5073135;28;20538;-64
2023/04/06 01:29:23;;;;;;;7.25;5.10;;;;;;;;;;5081961;28;20052;-63
2023/04/06 01:31:48;;;;;;;6.88;4.68;;;;;;;;;;5087791;28;20115;-64
2023/04/06 01:34:14;;;;;;;6.75;4.90;;;;;;;;;;5071556;28;20032;-63
2023/04/06 01:36:39;;;;;;;7.72;5.32;;;;;;;;;;5070192;28;20028;-62
2023/04/06 01:39:05;;;;;;;7.32;4.65;;;;;;;;;;5071337;28;20539;-62
2023/04/06 01:41:31;;;;;;;9.05;5.15;;;;;;;;;;5072197;28;20020;-63
2023/04/06 01:43:56;;;;;;;6.97;4.90;;;;;;;;;;5072270;28;20020;-62
2023/04/06 01:46:22;;;;;;;6.88;5.22;;;;;;;;;;5072241;28;20056;-62
2023/04/06 01:48:47;;;;;;;9.55;5.40;;;;;;;;;;5072168;28;20361;-64
2023/04/06 01:51:13;;;;;;;8.00;5.30;;;;;;;;;;5073291;28;20036;-62
2023/04/06 01:53:38;;;;;;;7.55;5.07;;;;;;;;;;5072092;28;20103;-62
2023/04/06 01:56:05;;;;;;;6.88;4.97;;;;;;;;;;5073044;28;20639;-62
2023/04/06 01:58:30;;;;;;;8.07;5.28;;;;;;;;;;5072412;28;20020;-62
2023/04/06 02:00:56;;;;;;;7.30;5.05;;;;;;;;;;5072865;28;20170;-62
2023/04/06 02:03:21;;;;;;;8.45;5.70;;;;;;;;;;5072767;28;20024;-63
2023/04/06 02:05:47;;;;;;;8.15;4.90;;;;;;;;;;5072877;28;20115;-64
2023/04/06 02:08:12;;;;;;;7.93;5.30;;;;;;;;;;5072688;28;20111;-63
2023/04/06 02:10:38;;;;;;;7.03;4.97;;;;;;;;;;5072957;28;20029;-64
2023/04/06 02:13:04;;;;;;;8.55;5.00;;;;;;;;;;5072812;28;20016;-63
2023/04/06 02:15:29;;;;;;;8.13;4.97;;;;;;;;;;5072945;28;20028;-63
2023/04/06 02:17:55;;;;;;;6.75;4.90;;;;;;;;;;5072653;28;20111;-63
2023/04/06 02:20:21;;;;;;;6.18;4.63;;;;;;;;;;5072568;28;20558;-64
2023/04/06 02:22:46;;;;;;;7.35;5.35;;;;;;;;;;5072895;28;20035;-64
2023/04/06 02:25:12;;;;;;;8.13;5.10;;;;;;;;;;5071610;28;20081;-64
2023/04/06 02:27:37;;;;;;;8.00;5.20;;;;;;;;;;5072746;28;20036;-64
2023/04/06 02:30:04;;;;;;;8.00;5.20;;;;;;;;;;5072489;28;20025;-65
2023/04/06 02:32:29;;;;;;;8.25;5.72;;;;;;;;;;5072517;28;20116;-64
2023/04/06 02:34:55;;;;;;;7.68;4.85;;;;;;;;;;5072570;28;20048;-63
2023/04/06 02:37:20;;;;;;;7.80;5.15;;;;;;;;;;5072737;28;20032;-63
2023/04/06 02:39:46;;;;;;;6.95;4.72;;;;;;;;;;5072773;28;20480;-64
2023/04/06 02:42:12;;;;;;;8.18;5.05;;;;;;;;;;5072383;28;20056;-65
2023/04/06 02:44:37;;;;;;;7.40;5.25;;;;;;;;;;5072124;28;20103;-64
2023/04/06 02:47:03;;;;;;;6.63;4.97;;;;;;;;;;5072248;28;20078;-63
2023/04/06 02:49:29;;;;;;;9.35;5.13;;;;;;;;;;5072594;28;20020;-65
2023/04/06 02:51:54;;;;;;;8.30;4.80;;;;;;;;;;5070812;28;20041;-64
2023/04/06 02:54:20;;;;;;;5.88;4.82;;;;;;;;;;5072293;28;20024;-64
2023/04/06 02:56:45;;;;;;;6.85;5.15;;;;;;;;;;5072519;28;20017;-64
2023/04/06 02:59:11;;;;;;;6.75;4.70;;;;;;;;;;5072231;28;20029;-64
2023/04/06 03:01:36;;;;;;;6.82;4.72;;;;;;;;;;5072284;28;20021;-63
2023/04/06 03:04:02;;;;;;;7.65;5.22;;;;;;;;;;5072253;28;20021;-64
2023/04/06 03:06:28;;;;;;;5.90;4.78;;;;;;;;;;5072228;28;20072;-64
2023/04/06 03:08:54;;;;;;;7.07;4.78;;;;;;;;;;5072168;28;20035;-63
2023/04/06 03:11:20;;;;;;;7.20;5.07;;;;;;;;;;5072410;28;20060;-64
2023/04/06 03:13:46;;;;;;;6.68;4.65;;;;;;;;;;5072388;28;20056;-64
2023/04/06 03:16:11;;;;;;;7.97;4.93;;;;;;;;;;5072140;28;20456;-63
2023/04/06 03:18:37;;;;;;;6.22;4.75;;;;;;;;;;5072323;28;20028;-63
2023/04/06 03:21:03;;;;;;;9.02;5.10;;;;;;;;;;5072042;28;20063;-64
2023/04/06 03:23:28;;;;;;;7.68;4.90;;;;;;;;;;5071900;28;20064;-64
2023/04/06 03:25:54;;;;;;;7.32;5.13;;;;;;;;;;5072028;28;20044;-64
2023/04/06 03:28:19;;;;;;;7.40;5.50;;;;;;;;;;5072112;28;20024;-63
2023/04/06 03:30:45;;;;;;;7.10;4.90;;;;;;;;;;5071896;28;20520;-63
2023/04/06 03:33:11;;;;;;;7.70;4.88;;;;;;;;;;5071952;28;20165;-64
2023/04/06 03:35:37;;;;;;;7.38;5.15;;;;;;;;;;5071905;28;20071;-62
2023/04/06 03:38:03;;;;;;;6.50;4.72;;;;;;;;;;5071832;28;20032;-63
2023/04/06 03:40:30;;;;;;;7.63;4.60;;;;;;;;;;5071877;28;20453;-62
2023/04/06 03:42:55;;;;;;;7.45;4.80;;;;;;;;;;5071797;28;20025;-64
2023/04/06 03:45:21;;;;;;;6.15;4.82;;;;;;;;;;5071913;28;20078;-63
2023/04/06 03:47:46;;;;;;;7.88;5.13;;;;;;;;;;5071746;28;20362;-63
2023/04/06 03:50:12;;;;;;;6.90;4.88;;;;;;;;;;5071780;28;20040;-64
2023/04/06 03:52:37;;;;;;;5.82;4.82;;;;;;;;;;5071641;28;20041;-64
2023/04/06 03:55:03;;;;;;;7.57;5.32;;;;;;;;;;5071735;28;20032;-63
2023/04/06 03:57:29;;;;;;;8.10;4.60;;;;;;;;;;5073261;28;20064;-63
2023/04/06 03:59:54;;;;;;;8.18;5.10;;;;;;;;;;5075355;28;20027;-64
2023/04/06 04:02:20;;;;;;;8.05;5.25;;;;;;;;;;5075175;28;20055;-63
2023/04/06 04:04:45;;;;;;;7.28;4.88;;;;;;;;;;5075213;28;20112;-64
2023/04/06 04:07:11;;;;;;;8.75;4.85;;;;;;;;;;5073944;28;20029;-63
2023/04/06 04:09:37;;;;;;;7.07;4.78;;;;;;;;;;5075133;28;20476;-63
2023/04/06 04:12:03;;;;;;;6.72;4.95;;;;;;;;;;5075311;28;20186;-64
2023/04/06 04:14:28;;;;;;;6.47;5.40;;;;;;;;;;5075017;28;20604;-62
2023/04/06 04:16:54;;;;;;;8.07;5.30;;;;;;;;;;5074803;28;20117;-62
2023/04/06 04:19:19;;;;;;;6.18;4.50;;;;;;;;;;5074833;28;20154;-64
2023/04/06 04:21:46;;;;;;;7.28;5.20;;;;;;;;;;5074899;28;20048;-63
2023/04/06 04:24:13;;;;;;;6.63;4.57;;;;;;;;;;5073527;28;20437;-63
2023/04/06 04:26:39;;;;;;;7.93;5.07;;;;;;;;;;5073551;28;20468;-64
2023/04/06 04:29:05;;;;;;;7.50;4.93;;;;;;;;;;5074690;28;20035;-64
2023/04/06 04:31:31;;;;;;;10.02;5.32;;;;;;;;;;5074839;28;20032;-64
2023/04/06 04:33:57;;;;;;;5.72;5.00;;;;;;;;;;5074674;28;20557;-64
2023/04/06 04:36:24;;;;;;;7.35;5.00;;;;;;;;;;5074791;28;20356;-64
2023/04/06 04:38:50;;;;;;;7.13;4.93;;;;;;;;;;5074627;28;20548;-63
2023/04/06 04:41:15;;;;;;;7.57;4.90;;;;;;;;;;5074416;28;20103;-65
2023/04/06 04:43:41;;;;;;;5.90;4.75;;;;;;;;;;5074399;28;20124;-64
2023/04/06 04:46:06;;;;;;;6.00;4.85;;;;;;;;;;5074415;28;20025;-63
2023/04/06 04:48:32;;;;;;;8.27;4.95;;;;;;;;;;5073102;28;20384;-64
2023/04/06 04:50:57;;;;;;;7.22;4.82;;;;;;;;;;5074041;28;20020;-63
2023/04/06 04:53:24;;;;;;;7.47;5.20;;;;;;;;;;5074121;28;20454;-63
2023/04/06 04:55:51;;;;;;;7.05;4.78;;;;;;;;;;5074308;28;20036;-64
2023/04/06 04:58:18;;;;;;;8.75;4.90;;;;;;;;;;5074045;28;20476;-63
2023/04/06 05:00:44;;;;;;;6.93;4.78;;;;;;;;;;5074079;28;20055;-64
2023/04/06 05:03:24;;;;;;;6.45;4.93;;;;;;;;;;5073921;28;20369;-63
2023/04/06 05:05:50;;;;;;;7.60;5.00;;;;;;;;;;5074317;28;20134;-62
2023/04/06 05:08:16;;;;;;;5.78;4.90;;;;;;;;;;5073994;28;20467;-62
2023/04/06 05:10:42;;;;;;;7.97;4.95;;;;;;;;;;5073800;28;20032;-64
2023/04/06 05:13:07;;;;;;;8.15;5.05;;;;;;;;;;5074089;28;20021;-64
2023/04/06 05:15:37;;;;;;;7.28;4.68;;;;;;;;;;5073693;28;20031;-63
2023/04/06 05:18:04;;;;;;;6.38;4.65;;;;;;;;;;5072518;28;20163;-63
2023/04/06 05:20:30;;;;;;;6.40;4.53;;;;;;;;;;5073618;28;20043;-65
2023/04/06 05:22:56;;;;;;;8.65;4.82;;;;;;;;;;5073673;28;20029;-63
2023/04/06 05:25:21;;;;;;;6.32;4.63;;;;;;;;;;5072366;28;20475;-63
2023/04/06 05:27:47;;;;;;;7.05;5.10;;;;;;;;;;5073456;28;20033;-64
2023/04/06 05:30:13;;;;;;;7.65;5.13;;;;;;;;;;5073357;28;20517;-63
2023/04/06 05:32:39;;;;;;;6.55;4.82;;;;;;;;;;5073378;28;20028;-64
2023/04/06 05:35:05;;;;;;;6.43;4.88;;;;;;;;;;5073162;28;20029;-63
2023/04/06 05:37:31;;;;;;;6.82;4.70;;;;;;;;;;5071483;28;20050;-63
2023/04/06 05:39:56;;;;;;;6.75;4.72;;;;;;;;;;5071633;28;20525;-63
2023/04/06 05:42:22;;;;;;;7.47;5.13;;;;;;;;;;5071386;28;20059;-63
2023/04/06 05:44:49;;;;;;;8.00;4.93;;;;;;;;;;5071877;28;20028;-64
2023/04/06 05:47:14;;;;;;;8.18;5.00;;;;;;;;;;5070044;28;20384;-64
2023/04/06 05:49:42;;;;;;;7.68;5.07;;;;;;;;;;5071929;28;20024;-64
2023/04/06 05:52:08;;;;;;;8.63;5.38;;;;;;;;;;5071155;28;20055;-64
2023/04/06 05:54:36;;;;;;;7.47;5.00;;;;;;;;;;5072942;28;20040;-65
2023/04/06 05:57:04;;;;;;;7.70;4.63;;;;;;;;;;5072940;28;20029;-65
2023/04/06 05:59:31;;;;;;;7.13;4.53;;;;;;;;;;5072848;28;20020;-65
2023/04/06 06:01:56;;;;;;;9.40;4.70;;;;;;;;;;5072920;28;20031;-64
2023/04/06 06:04:22;;;;;;;7.70;5.38;;;;;;;;;;5072909;28;20024;-64
2023/04/06 06:06:48;;;;;;;9.00;5.13;;;;;;;;;;5072635;28;20073;-64
2023/04/06 06:09:14;;;;;;;6.05;4.78;;;;;;;;;;5072770;28;20061;-64
2023/04/06 06:11:40;;;;;;;5.75;4.47;;;;;;;;;;5072669;28;20023;-65
2023/04/06 06:14:06;;;;;;;6.80;4.70;;;;;;;;;;5072646;28;20025;-64
2023/04/06 06:16:32;;;;;;;8.23;5.00;;;;;;;;;;5072877;28;20025;-64
2023/04/06 06:18:57;;;;;;;6.63;4.65;;;;;;;;;;5072479;28;20032;-64
2023/04/06 06:21:23;;;;;;;7.72;4.93;;;;;;;;;;5072382;28;20057;-64
2023/04/06 06:23:50;;;;;;;6.80;4.82;;;;;;;;;;5072480;28;20025;-65
2023/04/06 06:26:15;;;;;;;5.88;4.25;;;;;;;;;;5072357;28;20056;-64
2023/04/06 06:28:41;;;;;;;6.68;4.82;;;;;;;;;;5072300;28;20063;-65
2023/04/06 06:31:10;;;;;;;7.13;4.72;;;;;;;;;;5071037;28;20460;-65
2023/04/06 06:33:35;;;;;;;5.72;4.45;;;;;;;;;;5071936;28;20044;-65
2023/04/06 06:36:01;;;;;;;6.53;4.35;;;;;;;;;;5072580;28;20025;-63
2023/04/06 06:38:26;;;;;;;6.57;4.75;;;;;;;;;;5072496;28;20066;-63
2023/04/06 06:40:52;;;;;;;6.05;4.55;;;;;;;;;;5072221;28;20361;-63
2023/04/06 06:43:18;;;;;;;7.15;5.25;;;;;;;;;;5072351;28;20024;-63
2023/04/06 06:45:44;;;;;;;7.28;5.10;;;;;;;;;;5067913;28;20041;-62
2023/04/06 06:48:09;;;;;;;5.72;4.55;;;;;;;;;;5056313;28;20032;-63
2023/04/06 06:50:35;;;;;;;9.52;5.05;;;;;;;;;;5052217;28;20021;-64
2023/04/06 06:53:01;;;;;;;5.22;4.45;;;;;;;;;;5060599;28;20119;-63
2023/04/06 06:55:27;;;;;;;8.27;4.72;;;;;;;;;;5070386;28;20464;-64
2023/04/06 06:57:53;;;;;;;4.97;4.25;;;;;;;;;;5069490;28;20486;-64
2023/04/06 07:00:20;;;;;;;7.93;4.90;;;;;;;;;;5068975;28;20044;-64
2023/04/06 07:02:47;;;;;;;7.38;4.53;;;;;;;;;;5071100;28;20043;-64
2023/04/06 07:05:13;;;;;;;6.07;4.70;;;;;;;;;;5066120;28;20028;-64
2023/04/06 07:07:39;;;;;;;7.60;4.93;;;;;;;;;;5067918;28;20476;-64
2023/04/06 07:10:05;;;;;;;7.22;5.13;;;;;;;;;;5071718;28;20404;-64
2023/04/06 07:12:31;;;;;;;5.85;4.55;;;;;;;;;;5070697;28;20029;-64
2023/04/06 07:14:56;;;;;;;5.43;4.65;;;;;;;;;;5070752;28;20028;-64
2023/04/06 07:17:22;;;;;;;7.38;4.60;;;;;;;;;;5068881;28;20484;-64
2023/04/06 07:19:48;;;;;;;6.30;4.50;;;;;;;;;;5069936;28;20056;-65
2023/04/06 07:22:13;;;;;;;8.40;4.78;;;;;;;;;;5070406;28;20048;-64
2023/04/06 07:24:39;;;;;;;7.97;5.07;;;;;;;;;;5068727;28;20029;-65
2023/04/06 07:27:05;;;;;;;6.07;4.63;;;;;;;;;;5070310;28;20036;-65
2023/04/06 07:29:30;;;;;;;7.65;4.55;;;;;;;;;;5069009;28;20035;-64
2023/04/06 07:31:56;;;;;;;8.10;4.57;;;;;;;;;;5071112;28;20027;-63
2023/04/06 07:34:22;;;;;;;6.97;4.63;;;;;;;;;;5073992;28;20419;-64
2023/04/06 07:36:48;;;;;;;5.07;4.20;;;;;;;;;;5072784;28;20452;-64
2023/04/06 07:39:14;;;;;;;5.65;4.47;;;;;;;;;;5072416;28;20062;-64
2023/04/06 07:41:40;;;;;;;9.35;4.63;;;;;;;;;;5074053;28;20028;-64
2023/04/06 07:44:06;;;;;;;5.80;4.63;;;;;;;;;;5074630;28;20052;-64
2023/04/06 07:46:31;;;;;;;6.35;4.50;;;;;;;;;;5094018;28;20074;-63
2023/04/06 07:49:00;;;;;;;5.80;4.40;;;;;;;;;;5082798;28;20048;-64
2023/04/06 07:51:26;;;;;;;5.88;4.50;;;;;;;;;;5073333;28;20061;-64
2023/04/06 07:53:52;;;;;;;7.80;4.25;;;;;;;;;;5074026;28;20072;-65
2023/04/06 07:56:18;;;;;;;6.88;4.72;;;;;;;;;;5073479;28;20539;-65
2023/04/06 07:58:43;;;;;;;6.35;4.65;;;;;;;;;;5073629;28;20034;-65
2023/04/06 08:01:09;;;;;;;7.15;4.90;;;;;;;;;;5073413;28;20701;-65
2023/04/06 08:03:36;;;;;;;6.80;4.60;;;;;;;;;;5073717;28;20031;-65
2023/04/06 08:06:02;;;;;;;6.90;4.43;;;;;;;;;;5073767;28;20033;-65
2023/04/06 08:08:28;;;;;;;7.03;4.63;;;;;;;;;;5085733;28;20070;-64
2023/04/06 08:10:54;;;;;;;7.18;4.47;;;;;;;;;;5093561;28;20055;-65
2023/04/06 08:13:20;;;;;;;6.43;4.43;;;;;;;;;;5093359;28;20036;-64
2023/04/06 08:15:45;;;;;;;6.55;4.60;;;;;;;;;;5093879;28;20031;-65
2023/04/06 08:18:11;;;;;;;8.45;4.95;;;;;;;;;;5093319;28;20043;-65
2023/04/06 08:20:37;;;;;;;5.85;4.50;;;;;;;;;;5093813;28;20031;-65
2023/04/06 08:23:03;;;;;;;7.43;4.65;;;;;;;;;;5091902;28;20501;-66
2023/04/06 08:25:30;;;;;;;7.03;4.50;;;;;;;;;;5093698;28;20027;-65
2023/04/06 08:27:55;;;;;;;8.52;4.82;;;;;;;;;;5093297;28;20032;-65
2023/04/06 08:30:21;;;;;;;12.43;5.10;;;;;;;;;;5089854;28;20036;-65
2023/04/06 08:32:47;;;;;;;6.22;4.35;;;;;;;;;;5085678;28;20548;-65
2023/04/06 08:35:13;;;;;;;7.72;4.72;;;;;;;;;;5083937;28;20028;-66
2023/04/06 08:37:42;;;;;;;5.47;4.32;;;;;;;;;;5091833;28;20036;-66
2023/04/06 08:40:08;;;;;;;6.60;4.55;;;;;;;;;;5093029;28;20116;-66
2023/04/06 08:42:50;;;;;;;7.07;4.60;;;;;;;;;;5093069;28;20103;-64
2023/04/06 08:45:17;;;;;;;6.03;4.43;;;;;;;;;;5091460;28;20028;-65
2023/04/06 08:47:43;;;;;;;9.90;4.40;;;;;;;;;;5076432;28;20032;-64
2023/04/06 08:50:13;;;;;;;5.25;4.32;;;;;;;;;;5071728;28;20032;-63
2023/04/06 08:52:40;;;;;;;5.65;4.38;;;;;;;;;;5070748;28;20102;-64
2023/04/06 08:55:06;;;;;;;5.20;4.18;;;;;;;;;;5072159;28;20039;-63
2023/04/06 08:57:32;;;;;;;5.32;4.22;;;;;;;;;;5069845;28;20029;-63
2023/04/06 08:59:59;;;;;;;6.18;4.55;;;;;;;;;;5072567;28;20064;-63
2023/04/06 09:02:26;;;;;;;7.20;4.63;;;;;;;;;;5071483;28;20032;-63
2023/04/06 09:04:54;;;;;;;4.20;3.80;;;;;;;;;;5071774;28;20492;-64
2023/04/06 09:07:20;;;;;;;6.13;5.00;;;;;;;;;;5069963;28;20036;-64
2023/04/06 09:09:49;;;;;;;8.48;4.20;;;;;;;;;;5071032;28;20373;-63
2023/04/06 09:12:26;;;;;;;7.97;4.45;;;;;;;;;;5072082;28;20024;-64
2023/04/06 09:14:52;;;;;;;6.07;4.40;;;;;;;;;;5072040;28;20020;-64
2023/04/06 09:17:26;;;;;;;6.97;4.68;;;;;;;;;;5070882;28;20111;-64
2023/04/06 09:19:52;;;;;;;6.60;4.30;;;;;;;;;;5072119;28;20531;-64
2023/04/06 09:22:18;;;;;;;5.28;4.10;;;;;;;;;;5071232;28;20115;-64
2023/04/06 09:25:03;;;;;;;5.72;4.53;;;;;;;;;;5070373;28;20490;-64
2023/04/06 09:27:34;;;;;;;6.68;4.43;;;;;;;;;;5070373;28;20036;-64
2023/04/06 09:30:07;;;;;;;5.13;4.38;;;;;;;;;;5071008;28;20086;-64
2023/04/06 09:32:51;;;;;;;7.85;4.20;;;;;;;;;;5072201;28;20024;-65
2023/04/06 09:35:17;;;;;;;6.25;4.43;;;;;;;;;;5071530;28;20021;-63
2023/04/06 09:37:43;;;;;;;4.88;4.05;;;;;;;;;;5071830;28;20036;-64
2023/04/06 09:40:10;;;;;;;5.70;4.30;;;;;;;;;;5071673;28;20070;-65
2023/04/06 09:42:36;;;;;;;4.93;3.90;;;;;;;;;;5071547;28;20029;-64
2023/04/06 09:45:05;;;;;;;5.43;4.10;;;;;;;;;;5070220;28;20047;-64
2023/04/06 09:47:32;;;;;;;6.40;4.40;;;;;;;;;;5071814;28;20025;-64
2023/04/06 09:49:59;;;;;;;5.03;4.53;;;;;;;;;;5071661;28;20020;-64
2023/04/06 09:52:32;;;;;;;7.00;4.40;;;;;;;;;;5069793;28;20443;-63
2023/04/06 09:55:03;;;;;;;5.35;4.57;;;;;;;;;;5068111;28;20055;-64
2023/04/06 09:57:34;;;;;;;4.15;3.75;;;;;;;;;;5070155;28;20032;-65
2023/04/06 10:00:18;;;;;;;6.28;4.53;;;;;;;;;;5070369;28;20025;-63
2023/04/06 10:03:02;;;;;;;4.65;3.88;;;;;;;;;;5069350;28;20024;-64
2023/04/06 10:05:40;;;;;;;6.40;4.30;;;;;;;;;;5068085;28;20024;-64
2023/04/06 10:08:08;;;;;;;5.45;4.20;;;;;;;;;;5069828;28;20036;-64
2023/04/06 10:10:34;;;;;;;5.55;4.25;;;;;;;;;;5069981;28;20042;-64
2023/04/06 10:13:00;;;;;;;6.20;4.22;;;;;;;;;;5070170;28;20524;-64
2023/04/06 10:15:28;;;;;;;6.05;4.20;;;;;;;;;;5069739;28;20119;-64
2023/04/06 10:17:54;;;;;;;5.80;4.32;;;;;;;;;;5070955;28;20063;-64
2023/04/06 10:20:40;;;;;;;5.22;3.88;;;;;;;;;;5071130;28;20025;-64
2023/04/06 10:23:15;;;;;;;6.63;4.55;;;;;;;;;;5070871;28;20036;-64
2023/04/06 10:25:59;;;;;;;6.25;4.38;;;;;;;;;;5070844;28;20082;-63
2023/04/06 10:28:29;;;;;;;5.53;3.85;;;;;;;;;;5070821;28;20085;-64
2023/04/06 10:31:00;;;;;;;5.50;4.25;;;;;;;;;;5070901;28;20029;-64
2023/04/06 10:33:26;;;;;;;5.50;3.95;;;;;;;;;;5070741;28;20031;-64
2023/04/06 10:35:52;;;;;;;7.18;4.53;;;;;;;;;;5069443;28;20028;-64
2023/04/06 10:38:21;;;;;;;5.53;4.28;;;;;;;;;;5070667;28;20033;-64
2023/04/06 10:40:47;;;;;;;7.85;4.32;;;;;;;;;;5069444;28;20040;-64
2023/04/06 10:43:21;;;;;;;6.20;4.32;;;;;;;;;;5070692;28;20528;-64
2023/04/06 10:45:56;;;;;;;5.38;4.22;;;;;;;;;;5069337;28;20126;-64
2023/04/06 10:48:46;;;;;;;4.93;4.18;;;;;;;;;;5070629;28;20040;-64
2023/04/06 10:51:16;;;;;;;9.00;4.43;;;;;;;;;;5069725;28;20573;-64
2023/04/06 10:53:49;;;;;;;7.40;4.65;;;;;;;;;;5070621;28;20043;-64
2023/04/06 10:56:16;;;;;;;10.50;5.07;;;;;;;;;;5070610;28;20033;-63
2023/04/06 10:58:48;;;;;;;6.10;4.35;;;;;;;;;;5070611;28;20044;-64
2023/04/06 11:01:19;;;;;;;7.78;4.85;;;;;;;;;;5070753;28;20051;-64
2023/04/06 11:03:53;;;;;;;7.25;4.82;;;;;;;;;;5070538;28;20025;-64
2023/04/06 11:06:33;;;;;;;6.32;4.28;;;;;;;;;;5072375;28;20189;-64
2023/04/06 11:08:59;;;;;;;7.90;4.57;;;;;;;;;;5073232;28;20119;-64
2023/04/06 11:11:26;;;;;;;6.15;4.45;;;;;;;;;;5074555;28;20116;-65
2023/04/06 11:13:57;;;;;;;5.88;4.50;;;;;;;;;;5074435;28;20483;-62
2023/04/06 11:16:28;;;;;;;6.03;4.03;;;;;;;;;;5074384;28;20028;-64
2023/04/06 11:18:57;;;;;;;8.25;4.18;;;;;;;;;;5074619;28;20100;-63
2023/04/06 11:21:39;;;;;;;7.53;4.32;;;;;;;;;;5072189;28;20020;-63
2023/04/06 11:24:06;;;;;;;5.43;4.45;;;;;;;;;;5057463;28;20039;-63
2023/04/06 11:26:36;;;;;;;5.05;4.10;;;;;;;;;;5072331;28;20249;-64
2023/04/06 11:29:02;;;;;;;7.20;4.20;;;;;;;;;;5072748;28;20096;-64
2023/04/06 11:31:27;;;;;;;6.03;4.25;;;;;;;;;;5071653;28;20032;-65
2023/04/06 11:33:59;;;;;;;5.15;4.18;;;;;;;;;;5074016;28;20059;-65
2023/04/06 11:36:27;;;;;;;6.93;4.40;;;;;;;;;;5072731;28;20025;-64
2023/04/06 11:38:53;;;;;;;6.63;4.22;;;;;;;;;;5071971;28;20428;-65
2023/04/06 11:41:22;;;;;;;10.38;4.40;;;;;;;;;;5073995;28;20158;-64
2023/04/06 11:43:48;;;;;;;6.43;4.35;;;;;;;;;;5072539;28;20024;-64
2023/04/06 11:46:19;;;;;;;7.82;4.53;;;;;;;;;;5073798;28;20037;-64
2023/04/06 11:48:47;;;;;;;13.15;4.43;;;;;;;;;;5081783;28;20032;-64
2023/04/06 11:51:21;;;;;;;5.32;4.68;;;;;;;;;;5093391;28;20083;-64
2023/04/06 11:53:46;;;;;;;9.88;4.65;;;;;;;;;;5094107;28;20036;-63
2023/04/06 11:56:26;;;;;;;8.73;4.70;;;;;;;;;;5080093;28;20036;-64
2023/04/06 11:58:52;;;;;;;8.18;5.10;;;;;;;;;;5080789;28;20036;-65
2023/04/06 12:01:18;;;;;;;7.43;4.82;;;;;;;;;;5073502;28;20035;-64
2023/04/06 12:03:44;;;;;;;14.20;5.43;;;;;;;;;;5075383;28;20162;-64
2023/04/06 12:06:09;;;;;;;14.85;5.40;;;;;;;;;;5071928;28;20077;-64
2023/04/06 12:08:35;;;;;;;12.73;5.03;;;;;;;;;;5073486;28;20051;-64
2023/04/06 12:11:01;;;;;;;11.40;4.97;;;;;;;;;;5073284;28;20058;-64
2023/04/06 12:13:27;;;;;;;9.02;4.80;;;;;;;;;;5073689;28;20526;-63
2023/04/06 12:15:52;;;;;;;9.27;5.25;;;;;;;;;;5087598;28;20032;-64
2023/04/06 12:18:18;;;;;;;7.57;4.75;;;;;;;;;;5091453;28;20028;-64
2023/04/06 12:20:43;;;;;;;9.68;4.95;;;;;;;;;;5092136;28;20036;-64
2023/04/06 12:23:09;;;;;;;10.30;5.28;;;;;;;;;;5093345;28;20027;-64
2023/04/06 12:25:35;;;;;;;6.93;4.97;;;;;;;;;;5093274;28;20028;-64
2023/04/06 12:28:00;;;;;;;9.23;4.95;;;;;;;;;;5093276;28;20035;-65
2023/04/06 12:30:26;;;;;;;7.28;5.40;;;;;;;;;;5093379;28;20024;-64
2023/04/06 12:32:52;;;;;;;7.97;5.05;;;;;;;;;;5092897;28;20023;-64
2023/04/06 12:35:17;;;;;;;9.90;5.35;;;;;;;;;;5093062;28;20024;-64
2023/04/06 12:37:43;;;;;;;11.10;6.05;;;;;;;;;;5092917;28;20047;-64
2023/04/06 12:40:10;;;;;;;8.43;4.95;;;;;;;;;;5093363;28;20035;-64
2023/04/06 12:42:36;;;;;;;8.18;4.93;;;;;;;;;;5093098;28;20042;-63
2023/04/06 12:45:02;;;;;;;7.72;5.13;;;;;;;;;;5073512;28;20115;-64
2023/04/06 12:47:28;;;;;;;8.55;5.47;;;;;;;;;;5073007;28;20484;-64
2023/04/06 12:49:54;;;;;;;7.40;5.30;;;;;;;;;;5072493;28;20029;-63
2023/04/06 12:52:20;;;;;;;7.78;5.20;;;;;;;;;;5072425;28;20049;-64
2023/04/06 12:54:47;;;;;;;9.05;5.35;;;;;;;;;;5072812;28;20036;-64
2023/04/06 12:57:12;;;;;;;7.25;4.85;;;;;;;;;;5071152;28;20130;-63
2023/04/06 12:59:38;;;;;;;7.20;5.32;;;;;;;;;;5072435;28;20020;-64
2023/04/06 13:02:04;;;;;;;8.95;5.15;;;;;;;;;;5071584;28;20032;-64
2023/04/06 13:04:30;;;;;;;7.68;5.40;;;;;;;;;;5072343;28;20086;-64
2023/04/06 13:06:55;;;;;;;7.50;5.13;;;;;;;;;;5071959;28;20020;-64
2023/04/06 13:09:22;;;;;;;9.95;5.93;;;;;;;;;;5072259;28;20077;-64
2023/04/06 13:11:47;;;;;;;8.10;5.43;;;;;;;;;;5072527;28;20036;-64
2023/04/06 13:14:13;;;;;;;7.38;5.07;;;;;;;;;;5070555;28;20509;-63
2023/04/06 13:16:38;;;;;;;8.02;5.55;;;;;;;;;;5070180;28;20021;-64
2023/04/06 13:19:04;;;;;;;9.27;6.07;;;;;;;;;;5072347;28;20028;-63
2023/04/06 13:21:30;;;;;;;13.55;5.80;;;;;;;;;;5072126;28;20051;-64
2023/04/06 13:23:55;;;;;;;8.75;5.35;;;;;;;;;;5072027;28;20067;-64
2023/04/06 13:26:21;;;;;;;9.77;5.70;;;;;;;;;;5071897;28;20064;-64
2023/04/06 13:28:46;;;;;;;10.13;6.10;;;;;;;;;;5071799;28;20040;-64
2023/04/06 13:31:12;;;;;;;12.98;5.78;;;;;;;;;;5071040;28;20031;-64
2023/04/06 13:33:39;;;;;;;10.80;5.50;;;;;;;;;;5069313;28;20016;-63
2023/04/06 13:36:06;;;;;;;8.00;5.28;;;;;;;;;;5071023;28;20025;-64
2023/04/06 13:38:33;;;;;;;8.98;6.00;;;;;;;;;;5070721;28;20062;-63
2023/04/06 13:40:59;;;;;;;8.38;5.65;;;;;;;;;;5071772;28;20063;-64
2023/04/06 13:43:26;;;;;;;9.90;5.78;;;;;;;;;;5071902;28;20616;-64
2023/04/06 13:45:54;;;;;;;12.30;5.80;;;;;;;;;;5071554;28;20611;-63
2023/04/06 13:48:20;;;;;;;10.45;5.90;;;;;;;;;;5071439;28;20036;-63
2023/04/06 13:50:46;;;;;;;9.98;5.80;;;;;;;;;;5071465;28;20035;-63
2023/04/06 13:53:12;;;;;;;12.45;6.38;;;;;;;;;;5069704;28;20403;-64
2023/04/06 13:55:38;;;;;;;8.65;6.03;;;;;;;;;;5070083;28;20028;-63
2023/04/06 13:58:04;;;;;;;8.35;5.60;;;;;;;;;;5071416;28;20099;-62
2023/04/06 14:00:29;;;;;;;7.05;5.43;;;;;;;;;;5072615;28;20054;-63
2023/04/06 14:02:55;;;;;;;7.10;5.65;;;;;;;;;;5091657;28;20077;-63
2023/04/06 14:05:21;;;;;;;9.13;5.47;;;;;;;;;;5091438;28;20059;-63
2023/04/06 14:07:47;;;;;;;8.55;6.03;;;;;;;;;;5091229;28;20114;-64
2023/04/06 14:10:15;;;;;;;7.97;5.85;;;;;;;;;;5091429;28;20032;-63
2023/04/06 14:12:44;;;;;;;7.18;5.40;;;;;;;;;;5091197;28;20089;-64
2023/04/06 14:15:13;;;;;;;10.50;5.57;;;;;;;;;;5091550;28;20479;-64
2023/04/06 14:17:38;;;;;;;7.38;5.53;;;;;;;;;;5091557;28;20040;-64
2023/04/06 14:20:06;;;;;;;8.10;5.90;;;;;;;;;;5067575;28;20498;-64
2023/04/06 14:22:32;;;;;;;7.47;5.50;;;;;;;;;;5070949;28;20024;-64
2023/04/06 14:24:57;;;;;;;7.70;5.85;;;;;;;;;;5070867;28;20032;-65
2023/04/06 14:27:24;;;;;;;7.07;5.68;;;;;;;;;;5069541;28;20020;-65
2023/04/06 14:29:50;;;;;;;11.02;6.25;;;;;;;;;;5069636;28;20056;-64
2023/04/06 14:32:16;;;;;;;8.32;5.78;;;;;;;;;;5070867;28;20529;-65
2023/04/06 14:34:42;;;;;;;10.98;6.60;;;;;;;;;;5070815;28;20506;-64
2023/04/06 14:37:08;;;;;;;9.20;6.35;;;;;;;;;;5070378;28;20107;-64
2023/04/06 14:39:33;;;;;;;9.73;6.40;;;;;;;;;;5086712;28;20471;-65
2023/04/06 14:41:59;;;;;;;8.48;6.43;;;;;;;;;;5078117;28;20031;-64